createdAt,value
2022-08-11T00:02:32.378Z,58.90
2022-08-11T00:05:05.404Z,59.00
2022-08-11T00:07:33.335Z,60.00
2022-08-11T00:10:01.450Z,59.60
2022-08-11T00:12:30.741Z,59.30
2022-08-11T00:15:00.456Z,59.30
2022-08-11T00:17:29.697Z,59.10
2022-08-11T00:20:12.373Z,59.30
2022-08-11T00:22:46.403Z,59.40
2022-08-11T00:25:16.497Z,59.60
2022-08-11T00:27:46.967Z,59.10
2022-08-11T00:30:15.589Z,59.80
2022-08-11T00:32:44.831Z,60.00
2022-08-11T00:35:53.803Z,59.30
2022-08-11T00:38:03.708Z,60.30
2022-08-11T00:40:39.448Z,60.00
2022-08-11T00:43:20.973Z,59.50
2022-08-11T00:46:11.180Z,59.40
2022-08-11T00:48:46.680Z,59.60
2022-08-11T00:51:24.575Z,59.60
2022-08-11T00:54:06.173Z,59.70
2022-08-11T00:57:37.679Z,59.70
2022-08-11T01:00:16.937Z,59.90
2022-08-11T01:03:04.801Z,59.60
2022-08-11T01:06:05.245Z,59.60
2022-08-11T01:09:02.487Z,59.70
2022-08-11T01:11:57.176Z,59.50
2022-08-11T01:14:57.931Z,60.10
2022-08-11T01:18:01.430Z,59.60
2022-08-11T01:21:10.667Z,59.90
2022-08-11T01:24:36.417Z,59.70
2022-08-11T01:27:35.955Z,59.80
2022-08-11T01:30:28.639Z,60.00
2022-08-11T01:33:31.518Z,59.80
2022-08-11T01:36:41.127Z,59.90
2022-08-11T01:39:38.537Z,60.20
2022-08-11T01:46:20.375Z,60.00
2022-08-11T01:51:56.337Z,60.10
2022-08-11T01:57:13.030Z,60.60
2022-08-11T01:59:50.412Z,60.30
2022-08-11T02:02:47.940Z,60.30
2022-08-11T02:05:45.134Z,60.20
2022-08-11T02:08:33.160Z,60.20
2022-08-11T02:11:28.246Z,60.80
2022-08-11T02:14:04.134Z,60.50
2022-08-11T02:16:47.133Z,60.50
2022-08-11T02:19:41.817Z,60.50
2022-08-11T02:22:41.729Z,60.40
2022-08-11T02:25:17.886Z,60.40
2022-08-11T02:27:49.979Z,60.90
2022-08-11T02:30:21.214Z,60.90
2022-08-11T02:33:14.276Z,60.90
2022-08-11T02:35:49.549Z,61.20
2022-08-11T02:38:24.956Z,61.30
2022-08-11T02:41:01.801Z,61.10
2022-08-11T02:43:36.982Z,61.70
2022-08-11T02:46:19.919Z,61.60
2022-08-11T02:49:28.463Z,61.80
2022-08-11T02:52:09.611Z,61.80
2022-08-11T02:54:44.580Z,62.80
2022-08-11T02:57:20.825Z,61.80
2022-08-11T02:59:51.658Z,61.50
2022-08-11T03:03:00.658Z,62.30
2022-08-11T03:05:37.847Z,62.70
2022-08-11T03:08:14.228Z,61.70
2022-08-11T03:11:11.736Z,63.20
2022-08-11T03:14:09.256Z,63.10
2022-08-11T03:16:46.697Z,62.60
2022-08-11T03:19:22.012Z,64.20
2022-08-11T03:22:03.570Z,63.80
2022-08-11T03:24:38.710Z,63.50
2022-08-11T03:27:28.834Z,63.80
2022-08-11T03:30:06.355Z,63.60
2022-08-11T03:33:12.133Z,63.50
2022-08-11T03:35:45.328Z,63.60
2022-08-11T03:38:17.011Z,63.10
2022-08-11T03:42:02.512Z,63.20
2022-08-11T03:44:35.561Z,64.40
2022-08-11T03:47:15.138Z,64.30
2022-08-11T03:50:00.829Z,63.80
2022-08-11T03:52:51.722Z,64.20
2022-08-11T03:55:35.083Z,64.70
2022-08-11T03:58:29.567Z,63.80
2022-08-11T04:01:22.103Z,65.00
2022-08-11T04:04:18.712Z,64.70
2022-08-11T04:07:17.397Z,64.50
2022-08-11T04:10:24.061Z,65.70
2022-08-11T04:13:19.562Z,65.60
2022-08-11T04:16:25.039Z,65.70
2022-08-11T04:19:21.509Z,65.00
2022-08-11T04:22:25.254Z,65.00
2022-08-11T04:25:16.589Z,66.00
2022-08-11T04:28:07.150Z,65.90
2022-08-11T04:30:51.443Z,65.50
2022-08-11T04:33:43.603Z,66.10
2022-08-11T04:36:54.469Z,65.10
2022-08-11T04:39:39.534Z,66.20
2022-08-11T04:42:55.069Z,66.80
2022-08-11T04:45:46.837Z,66.00
2022-08-11T04:49:03.895Z,66.10
2022-08-11T04:52:18.434Z,67.00
2022-08-11T04:55:21.964Z,67.90
2022-08-11T04:58:22.209Z,67.00
2022-08-11T05:01:37.709Z,66.90
2022-08-11T05:04:39.308Z,66.70
2022-08-11T05:07:49.464Z,66.50
2022-08-11T05:10:28.934Z,67.00
2022-08-11T05:13:20.816Z,67.70
2022-08-11T05:16:13.241Z,66.30
2022-08-11T05:19:07.429Z,66.60
2022-08-11T05:21:54.647Z,67.10
2022-08-11T05:24:48.644Z,67.10
2022-08-11T05:27:38.002Z,67.40
2022-08-11T05:30:26.044Z,66.40
2022-08-11T05:33:25.032Z,66.40
2022-08-11T05:36:05.769Z,67.20
2022-08-11T05:38:54.974Z,66.50
2022-08-11T05:41:43.763Z,66.40
2022-08-11T05:44:36.537Z,67.20
2022-08-11T05:47:23.116Z,66.70
2022-08-11T05:50:13.556Z,66.80
2022-08-11T05:53:09.337Z,66.50
2022-08-11T05:56:03.198Z,67.90
2022-08-11T05:58:39.759Z,66.70
2022-08-11T06:01:09.752Z,66.90
2022-08-11T06:03:58.488Z,66.80
2022-08-11T06:06:29.062Z,65.60
2022-08-11T06:08:59.275Z,66.20
2022-08-11T06:11:43.903Z,65.70
2022-08-11T06:14:12.183Z,66.50
2022-08-11T06:16:42.249Z,65.80
2022-08-11T06:19:10.376Z,66.10
2022-08-11T06:21:38.447Z,65.80
2022-08-11T06:24:12.840Z,66.10
2022-08-11T06:27:01.713Z,65.60
2022-08-11T06:29:38.310Z,66.60
2022-08-11T06:32:16.118Z,65.70
2022-08-11T06:35:03.758Z,65.20
2022-08-11T06:37:43.634Z,65.10
2022-08-11T06:40:25.734Z,65.30
2022-08-11T06:42:58.690Z,65.10
2022-08-11T06:45:31.226Z,64.60
2022-08-11T06:48:03.075Z,64.80
2022-08-11T06:50:50.026Z,64.70
2022-08-11T06:53:19.323Z,63.90
2022-08-11T06:56:08.389Z,63.70
2022-08-11T06:58:57.278Z,63.70
2022-08-11T07:01:35.239Z,63.10
2022-08-11T07:04:07.858Z,62.90
2022-08-11T07:06:51.243Z,62.70
2022-08-11T07:10:03.135Z,62.10
2022-08-11T07:13:01.819Z,62.10
2022-08-11T07:16:13.327Z,61.60
2022-08-11T07:18:50.823Z,61.00
2022-08-11T07:22:02.886Z,60.50
2022-08-11T07:25:02.645Z,60.40
2022-08-11T07:27:55.525Z,60.10
2022-08-11T07:30:26.132Z,59.50
2022-08-11T07:32:54.859Z,59.30
2022-08-11T07:35:27.345Z,58.80
2022-08-11T07:38:01.819Z,58.60
2022-08-11T07:40:30.689Z,58.20
2022-08-11T07:43:00.616Z,57.90
2022-08-11T07:45:48.314Z,58.00
2022-08-11T07:48:43.369Z,57.80
2022-08-11T07:51:29.570Z,57.20
2022-08-11T07:53:58.804Z,56.70
2022-08-11T07:56:54.160Z,56.70
2022-08-11T08:00:00.046Z,55.70
2022-08-11T08:02:49.095Z,55.70
2022-08-11T08:05:37.491Z,55.60
2022-08-11T08:08:25.408Z,55.40
2022-08-11T08:11:13.238Z,55.60
2022-08-11T08:13:59.311Z,55.00
2022-08-11T08:16:45.511Z,54.70
2022-08-11T08:19:17.051Z,54.90
2022-08-11T08:21:45.654Z,54.20
2022-08-11T08:24:13.855Z,53.40
2022-08-11T08:27:01.570Z,54.00
2022-08-11T08:29:51.269Z,54.00
2022-08-11T08:32:19.714Z,53.60
2022-08-11T08:34:51.140Z,51.90
2022-08-11T08:37:45.100Z,53.40
2022-08-11T08:40:11.619Z,52.30
2022-08-11T08:42:45.279Z,52.90
2022-08-11T08:45:18.510Z,52.60
2022-08-11T08:47:58.527Z,52.70
2022-08-11T08:50:48.978Z,52.90
2022-08-11T08:53:22.173Z,50.60
2022-08-11T08:55:51.229Z,52.60
2022-08-11T08:58:22.027Z,51.90
2022-08-11T09:00:52.394Z,51.80
2022-08-11T09:06:09.440Z,51.30
2022-08-11T09:08:36.819Z,49.50
2022-08-11T09:11:29.063Z,50.70
2022-08-11T09:14:04.910Z,51.50
2022-08-11T09:16:35.455Z,49.70
2022-08-11T09:19:03.978Z,49.70
2022-08-11T09:21:48.616Z,50.20
2022-08-11T09:24:36.594Z,49.70
2022-08-11T09:27:06.774Z,49.20
2022-08-11T09:29:35.018Z,49.30
2022-08-11T09:32:07.156Z,49.10
2022-08-11T09:34:36.633Z,49.70
2022-08-11T09:37:28.773Z,50.20
2022-08-11T09:40:33.397Z,49.20
2022-08-11T09:43:22.175Z,49.00
2022-08-11T09:45:51.968Z,48.60
2022-08-11T09:48:20.758Z,48.20
2022-08-11T09:50:50.859Z,47.10
2022-08-11T09:53:35.972Z,48.90
2022-08-11T09:56:26.068Z,48.40
2022-08-11T09:58:53.277Z,47.30
2022-08-11T10:01:27.565Z,46.90
2022-08-11T10:04:00.241Z,47.20
2022-08-11T10:06:48.533Z,46.50
2022-08-11T10:09:25.104Z,47.20
2022-08-11T10:11:55.467Z,46.50
2022-08-11T10:14:45.193Z,46.50
2022-08-11T10:17:15.102Z,45.10
2022-08-11T10:19:44.387Z,44.40
2022-08-11T10:22:50.664Z,42.80
2022-08-11T10:25:39.075Z,45.10
2022-08-11T10:28:28.281Z,43.50
2022-08-11T10:31:16.517Z,45.00
2022-08-11T10:34:00.652Z,46.20
2022-08-11T10:36:30.770Z,45.00
2022-08-11T10:38:59.768Z,44.50
2022-08-11T10:42:06.401Z,45.20
2022-08-11T10:44:38.429Z,44.90
2022-08-11T10:47:30.364Z,45.10
2022-08-11T10:50:17.101Z,44.70
2022-08-11T10:53:06.172Z,44.90
2022-08-11T10:55:52.586Z,44.70
2022-08-11T10:58:40.345Z,44.30
2022-08-11T11:01:08.440Z,44.20
2022-08-11T11:03:36.756Z,45.00
2022-08-11T11:06:13.978Z,44.30
2022-08-11T11:09:05.375Z,44.40
2022-08-11T11:11:56.153Z,44.70
2022-08-11T11:14:49.909Z,44.50
2022-08-11T11:17:26.545Z,43.20
2022-08-11T11:19:57.936Z,44.60
2022-08-11T11:22:40.636Z,44.90
2022-08-11T11:25:35.865Z,45.20
2022-08-11T11:28:32.505Z,44.00
2022-08-11T11:31:12.301Z,43.40
2022-08-11T11:34:06.147Z,43.30
2022-08-11T11:36:45.522Z,42.30
2022-08-11T11:39:12.976Z,44.20
2022-08-11T11:41:41.878Z,43.60
2022-08-11T11:44:13.130Z,44.60
2022-08-11T11:46:45.319Z,43.00
2022-08-11T11:49:17.351Z,43.30
2022-08-11T11:51:46.174Z,43.50
2022-08-11T11:54:18.302Z,43.70
2022-08-11T11:56:45.976Z,43.30
2022-08-11T11:59:41.072Z,44.50
2022-08-11T12:02:11.774Z,42.60
2022-08-11T12:04:42.916Z,43.50
2022-08-11T12:07:35.707Z,43.00
2022-08-11T12:10:03.303Z,43.00
2022-08-11T12:12:50.662Z,42.40
2022-08-11T12:16:03.488Z,42.80
2022-08-11T12:18:10.885Z,42.90
2022-08-11T12:20:38.518Z,43.10
2022-08-11T12:23:24.832Z,42.50
2022-08-11T12:26:26.502Z,42.50
2022-08-11T12:28:58.539Z,42.20
2022-08-11T12:31:25.968Z,42.70
2022-08-11T12:33:59.694Z,42.50
2022-08-11T12:36:27.301Z,42.40
2022-08-11T12:38:56.284Z,42.50
2022-08-11T12:41:42.791Z,39.70
2022-08-11T12:44:30.508Z,42.00
2022-08-11T12:47:01.473Z,42.10
2022-08-11T12:49:53.873Z,41.90
2022-08-11T12:52:25.480Z,41.90
2022-08-11T12:54:59.918Z,41.70
2022-08-11T12:57:49.956Z,42.10
2022-08-11T13:00:37.267Z,41.50
2022-08-11T13:03:26.595Z,41.90
2022-08-11T13:06:03.895Z,41.40
2022-08-11T13:08:35.436Z,40.90
2022-08-11T13:11:23.624Z,41.50
2022-08-11T13:13:57.430Z,41.70
2022-08-11T13:16:29.236Z,41.80
2022-08-11T13:18:57.527Z,41.10
2022-08-11T13:21:28.234Z,41.20
2022-08-11T13:23:59.719Z,41.20
2022-08-11T13:26:36.960Z,40.80
2022-08-11T13:29:19.215Z,41.10
2022-08-11T13:31:47.024Z,40.80
2022-08-11T13:34:15.653Z,40.80
2022-08-11T13:36:45.819Z,40.00
2022-08-11T13:39:13.548Z,39.80
2022-08-11T13:41:45.068Z,40.10
2022-08-11T13:44:17.472Z,40.10
2022-08-11T13:46:49.225Z,40.20
2022-08-11T13:49:21.934Z,40.60
2022-08-11T13:51:50.800Z,40.90
2022-08-11T13:54:28.869Z,40.00
2022-08-11T13:57:01.873Z,40.00
2022-08-11T13:59:30.805Z,40.60
2022-08-11T14:02:22.977Z,39.20
2022-08-11T14:04:55.665Z,38.90
2022-08-11T14:07:27.482Z,39.40
2022-08-11T14:09:58.183Z,39.00
2022-08-11T14:12:46.679Z,38.40
2022-08-11T14:15:20.263Z,37.90
2022-08-11T14:17:52.278Z,38.50
2022-08-11T14:20:38.524Z,37.90
2022-08-11T14:23:13.963Z,37.50
2022-08-11T14:26:02.869Z,37.60
2022-08-11T14:28:37.463Z,37.60
2022-08-11T14:31:09.704Z,37.90
2022-08-11T14:34:00.851Z,37.30
2022-08-11T14:36:28.368Z,37.30
2022-08-11T14:38:57.999Z,38.20
2022-08-11T14:42:11.464Z,37.00
2022-08-11T14:44:53.449Z,37.60
2022-08-11T14:47:23.385Z,37.10
2022-08-11T14:49:58.428Z,36.20
2022-08-11T14:52:43.359Z,37.40
2022-08-11T14:58:34.285Z,36.20
2022-08-11T15:01:03.694Z,37.50
2022-08-11T15:03:33.790Z,37.10
2022-08-11T15:06:03.718Z,37.60
2022-08-11T15:08:52.156Z,37.10
2022-08-11T15:11:41.026Z,38.00
2022-08-11T15:14:11.339Z,38.00
2022-08-11T15:17:00.449Z,37.20
2022-08-11T15:20:05.727Z,37.10
2022-08-11T15:22:51.429Z,38.10
2022-08-11T15:25:20.240Z,37.90
2022-08-11T15:28:09.105Z,37.30
2022-08-11T15:30:55.810Z,37.20
2022-08-11T15:33:45.047Z,37.20
2022-08-11T15:36:33.449Z,36.50
2022-08-11T15:39:03.257Z,37.30
2022-08-11T15:41:58.864Z,37.50
2022-08-11T15:45:05.055Z,37.30
2022-08-11T15:47:38.826Z,37.60
2022-08-11T15:50:14.094Z,37.70
2022-08-11T15:52:49.573Z,38.10
2022-08-11T15:55:17.901Z,37.60
2022-08-11T15:58:06.711Z,37.60
2022-08-11T16:00:59.009Z,37.80
2022-08-11T16:04:07.635Z,37.80
2022-08-11T16:06:38.987Z,37.90
2022-08-11T16:09:18.346Z,37.80
2022-08-11T16:11:47.043Z,35.40
2022-08-11T16:14:36.314Z,37.30
2022-08-11T16:17:07.151Z,37.30
2022-08-11T16:19:36.584Z,36.70
2022-08-11T16:22:07.885Z,36.50
2022-08-11T16:27:02.079Z,36.80
2022-08-11T16:27:27.983Z,37.30
2022-08-11T16:29:56.895Z,37.80
2022-08-11T16:32:25.880Z,37.80
2022-08-11T16:35:15.652Z,38.10
2022-08-11T16:38:03.512Z,37.80
2022-08-11T16:40:33.823Z,37.90
2022-08-11T16:43:22.495Z,38.10
2022-08-11T16:46:08.656Z,37.70
2022-08-11T16:48:38.950Z,37.80
2022-08-11T16:51:06.982Z,37.60
2022-08-11T16:53:54.854Z,37.40
2022-08-11T16:56:30.623Z,37.40
2022-08-11T16:59:14.780Z,38.00
2022-08-11T17:01:49.534Z,36.60
2022-08-11T17:04:41.875Z,37.00
2022-08-11T17:07:42.434Z,38.10
2022-08-11T17:10:51.157Z,38.30
2022-08-11T17:13:31.789Z,37.70
2022-08-11T17:16:07.345Z,38.30
2022-08-11T17:18:41.262Z,37.70
2022-08-11T17:21:15.419Z,38.70
2022-08-11T17:23:47.102Z,38.70
2022-08-11T17:26:18.851Z,38.60
2022-08-11T17:28:51.460Z,38.80
2022-08-11T17:31:39.680Z,38.70
2022-08-11T17:34:27.082Z,39.00
2022-08-11T17:36:55.092Z,39.10
2022-08-11T17:39:29.221Z,38.90
2022-08-11T17:42:16.589Z,39.00
2022-08-11T17:45:06.106Z,39.20
2022-08-11T17:47:52.551Z,39.30
2022-08-11T17:50:20.994Z,39.50
2022-08-11T17:53:07.246Z,39.50
2022-08-11T17:56:14.523Z,39.80
2022-08-11T17:59:00.698Z,39.90
2022-08-11T18:01:36.474Z,39.80
2022-08-11T18:04:06.010Z,40.10
2022-08-11T18:06:35.249Z,40.30
2022-08-11T18:09:24.103Z,40.30
2022-08-11T18:12:12.925Z,40.50
2022-08-11T18:15:04.123Z,40.50
2022-08-11T18:17:51.905Z,40.70
2022-08-11T18:20:38.269Z,40.70
2022-08-11T18:23:41.750Z,40.80
2022-08-11T18:26:39.398Z,41.00
2022-08-11T18:29:30.078Z,40.90
2022-08-11T18:32:22.116Z,40.90
2022-08-11T18:35:13.558Z,41.00
2022-08-11T18:38:05.577Z,41.10
2022-08-11T18:40:54.275Z,41.20
2022-08-11T18:43:43.013Z,41.30
2022-08-11T18:46:31.569Z,41.40
2022-08-11T18:49:21.228Z,41.40
2022-08-11T18:52:12.448Z,41.40
2022-08-11T18:55:01.406Z,41.60
2022-08-11T18:57:53.902Z,41.60
2022-08-11T19:00:41.862Z,41.70
2022-08-11T19:03:30.255Z,41.80
2022-08-11T19:06:38.069Z,41.90
2022-08-11T19:09:30.654Z,41.80
2022-08-11T19:12:17.733Z,41.90
2022-08-11T19:15:04.523Z,42.00
2022-08-11T19:17:52.548Z,42.10
2022-08-11T19:20:43.476Z,42.30
2022-08-11T19:23:31.559Z,42.20
2022-08-11T19:26:19.805Z,42.40
2022-08-11T19:29:08.281Z,42.40
2022-08-11T19:31:55.390Z,42.50
2022-08-11T19:34:42.535Z,42.60
2022-08-11T19:37:29.749Z,42.90
2022-08-11T19:40:20.412Z,42.90
2022-08-11T19:43:11.279Z,43.10
2022-08-11T19:46:11.165Z,43.10
2022-08-11T19:48:57.982Z,43.30
2022-08-11T19:51:44.118Z,43.60
2022-08-11T19:54:30.584Z,43.50
2022-08-11T19:57:16.468Z,43.80
2022-08-11T20:00:04.309Z,44.00
2022-08-11T20:02:49.906Z,44.10
2022-08-11T20:05:35.478Z,44.20
2022-08-11T20:08:22.290Z,44.20
2022-08-11T20:11:10.827Z,44.40
2022-08-11T20:13:59.307Z,44.60
2022-08-11T20:16:47.899Z,44.80
2022-08-11T20:19:56.495Z,44.90
2022-08-11T20:22:43.777Z,45.00
2022-08-11T20:25:31.851Z,45.00
2022-08-11T20:28:17.246Z,45.10
2022-08-11T20:31:04.876Z,45.40
2022-08-11T20:33:52.936Z,45.40
2022-08-11T20:36:38.826Z,45.40
2022-08-11T20:39:25.321Z,45.80
2022-08-11T20:42:12.248Z,45.70
2022-08-11T20:44:59.886Z,45.90
2022-08-11T20:47:59.674Z,45.90
2022-08-11T20:50:49.610Z,46.20
2022-08-11T20:53:40.651Z,46.10
2022-08-11T20:56:28.921Z,46.50
2022-08-11T20:59:17.723Z,46.60
2022-08-11T21:02:09.845Z,46.70
2022-08-11T21:04:56.873Z,46.90
2022-08-11T21:07:55.218Z,46.90
2022-08-11T21:10:44.401Z,46.90
2022-08-11T21:13:37.143Z,47.30
2022-08-11T21:16:25.564Z,47.60
2022-08-11T21:19:16.990Z,47.60
2022-08-11T21:22:03.829Z,47.80
2022-08-11T21:24:52.261Z,48.10
2022-08-11T21:27:40.214Z,48.20
2022-08-11T21:30:27.069Z,48.50
2022-08-11T21:33:15.213Z,48.70
2022-08-11T21:36:01.233Z,48.70
2022-08-11T21:38:47.759Z,49.10
2022-08-11T21:41:35.541Z,49.00
2022-08-11T21:44:24.602Z,49.30
2022-08-11T21:47:11.067Z,48.80
2022-08-11T21:49:59.632Z,49.40
2022-08-11T21:52:45.867Z,49.80
2022-08-11T21:55:32.180Z,50.80
2022-08-11T21:58:20.126Z,49.80
2022-08-11T22:01:06.748Z,50.20
2022-08-11T22:03:52.599Z,50.10
2022-08-11T22:06:41.488Z,50.10
2022-08-11T22:09:27.593Z,50.80
2022-08-11T22:12:33.816Z,51.00
2022-08-11T22:15:20.803Z,50.60
2022-08-11T22:18:06.654Z,50.20
2022-08-11T22:20:54.062Z,50.70
2022-08-11T22:23:41.769Z,51.10
2022-08-11T22:26:28.789Z,50.60
2022-08-11T22:29:15.508Z,51.10
2022-08-11T22:32:03.073Z,51.30
2022-08-11T22:34:53.076Z,51.40
2022-08-11T22:37:40.529Z,51.70
2022-08-11T22:40:28.371Z,51.70
2022-08-11T22:43:14.296Z,51.50
2022-08-11T22:46:00.034Z,51.70
2022-08-11T22:48:48.618Z,51.80
2022-08-11T22:51:36.810Z,51.70
2022-08-11T22:54:24.345Z,52.00
2022-08-11T22:57:10.010Z,51.70
2022-08-11T22:59:56.251Z,52.20
2022-08-11T23:02:44.368Z,52.30
2022-08-11T23:05:33.348Z,52.20
2022-08-11T23:08:19.207Z,51.90
2022-08-11T23:11:05.684Z,52.60
2022-08-11T23:13:52.073Z,52.30
2022-08-11T23:16:38.788Z,52.70
2022-08-11T23:20:06.873Z,53.00
2022-08-11T23:22:37.006Z,52.60
2022-08-11T23:25:35.103Z,52.40
2022-08-11T23:28:21.450Z,53.60
2022-08-11T23:31:09.690Z,52.90
2022-08-11T23:34:00.570Z,53.90
2022-08-11T23:36:47.474Z,53.10
2022-08-11T23:39:35.778Z,52.80
2022-08-11T23:42:21.804Z,53.30
2022-08-11T23:45:10.058Z,52.60
2022-08-11T23:47:57.369Z,53.10
2022-08-11T23:50:43.875Z,53.60
2022-08-11T23:53:30.986Z,53.70
2022-08-11T23:56:21.902Z,54.40
2022-08-11T23:59:09.421Z,53.90
